Time;durP1;ratioP1;P1;durP2;ratioP2;P2;SDS_P1;SDS_P2;PMS_P1;PMS_P2;Temp;Humidity;BMP_temperature;BMP_pressure;BME280_temperature;BME280_humidity;BME280_pressure;Samples;Min_cycle;Max_cycle;Signal;HPM_P1;HPM_P2
2022/06/05 00:00:12;;;;;;;11.07;9.87;;;;;;;11.40;82.07;102306.91;5029041;28;20668;-72
2022/06/05 00:02:50;;;;;;;10.17;8.20;;;;;;;11.42;83.15;102302.72;5029689;28;20257;-71
2022/06/05 00:05:25;;;;;;;23.03;16.43;;;;;;;11.42;82.81;102314.66;5028994;28;20174;-71
2022/06/05 00:07:52;;;;;;;19.07;13.40;;;;;;;11.42;82.65;102314.66;5029602;28;20288;-71
2022/06/05 00:10:19;;;;;;;18.10;12.37;;;;;;;11.32;81.94;102305.72;5028799;28;20175;-71
2022/06/05 00:12:56;;;;;;;13.80;11.03;;;;;;;11.26;82.64;102302.03;5029500;28;20182;-71
2022/06/05 00:15:22;;;;;;;13.50;10.10;;;;;;;11.16;83.52;102298.22;5029386;28;20693;-71
2022/06/05 00:17:47;;;;;;;16.13;10.27;;;;;;;11.20;83.03;102301.81;5029034;28;20202;-71
2022/06/05 00:20:13;;;;;;;13.40;11.47;;;;;;;11.18;83.31;102299.19;5011675;28;20198;-71
2022/06/05 00:22:39;;;;;;;11.63;10.40;;;;;;;11.08;82.78;102298.75;5029755;28;20232;-71
2022/06/05 00:25:07;;;;;;;16.60;12.33;;;;;;;11.11;82.43;102297.16;5033475;28;20272;-71
2022/06/05 00:27:48;;;;;;;14.80;11.50;;;;;;;11.02;82.56;102293.38;5033123;28;20638;-71
2022/06/05 00:30:29;;;;;;;14.93;11.03;;;;;;;10.99;83.91;102290.69;5033369;28;20190;-71
2022/06/05 00:33:08;;;;;;;11.80;9.43;;;;;;;10.98;83.99;102288.94;5032959;28;20205;-71
2022/06/05 00:35:50;;;;;;;10.27;8.87;;;;;;;10.92;83.83;102292.09;5033625;28;20193;-71
2022/06/05 00:38:33;;;;;;;10.10;8.60;;;;;;;10.90;84.80;102282.63;4998613;28;20726;-71
2022/06/05 00:41:44;;;;;;;11.30;9.40;;;;;;;10.85;84.69;102286.69;5033139;28;20195;-71
2022/06/05 00:44:17;;;;;;;10.97;9.47;;;;;;;10.88;84.87;102289.38;5032958;28;20838;-71
2022/06/05 00:46:46;;;;;;;12.07;9.90;;;;;;;10.79;84.76;102282.16;5015623;28;20622;-71
2022/06/05 00:49:11;;;;;;;11.70;9.40;;;;;;;10.72;85.45;102279.28;5032444;28;20202;-71
2022/06/05 00:51:37;;;;;;;11.27;9.33;;;;;;;10.73;84.96;102275.94;5033084;28;20183;-71
2022/06/05 00:54:03;;;;;;;11.97;9.83;;;;;;;10.77;85.31;102281.25;5033024;28;20269;-71
2022/06/05 00:56:29;;;;;;;11.83;9.07;;;;;;;10.72;85.56;102263.91;5032502;28;20178;-71
2022/06/05 00:58:54;;;;;;;13.93;10.60;;;;;;;10.76;85.93;102273.47;5032784;28;20206;-71
2022/06/05 01:01:21;;;;;;;14.43;10.37;;;;;;;10.75;86.55;102280.31;5032308;28;20191;-72
2022/06/05 01:03:47;;;;;;;14.50;10.57;;;;;;;10.71;86.64;102275.88;5032886;28;20647;-71
2022/06/05 01:06:13;;;;;;;14.03;10.37;;;;;;;10.73;86.75;102273.38;5032357;28;20217;-71
2022/06/05 01:08:40;;;;;;;12.00;9.30;;;;;;;10.72;86.95;102269.03;5032656;28;20271;-71
2022/06/05 01:11:22;;;;;;;16.67;11.13;;;;;;;10.73;87.08;102263.13;5032577;28;20275;-72
2022/06/05 01:14:17;;;;;;;12.77;9.47;;;;;;;10.68;87.05;102262.91;5032368;28;20588;-71
2022/06/05 01:16:55;;;;;;;13.30;10.00;;;;;;;10.68;86.75;102255.22;5014793;28;20190;-71
2022/06/05 01:19:46;;;;;;;16.60;11.73;;;;;;;10.67;87.21;102250.94;5032195;28;20221;-72
2022/06/05 01:22:27;;;;;;;15.10;11.43;;;;;;;10.60;88.07;102241.22;5014648;28;20215;-71
2022/06/05 01:24:55;;;;;;;15.30;11.27;;;;;;;10.62;87.29;102243.84;5032211;28;20178;-71
2022/06/05 01:27:31;;;;;;;14.90;11.63;;;;;;;10.59;87.86;102234.38;5032526;28;20182;-71
2022/06/05 01:30:09;;;;;;;15.37;10.87;;;;;;;10.58;88.01;102234.28;5031808;28;20170;-71
2022/06/05 01:32:49;;;;;;;14.00;11.30;;;;;;;10.62;88.36;102237.06;5032142;28;20202;-71
2022/06/05 01:35:27;;;;;;;14.60;11.60;;;;;;;10.48;88.26;102233.06;5013779;28;20271;-71
2022/06/05 01:38:00;;;;;;;14.17;10.90;;;;;;;10.47;87.98;102236.41;5014559;28;20205;-71
2022/06/05 01:40:34;;;;;;;12.23;9.77;;;;;;;10.49;87.61;102232.22;5013529;28;20190;-71
2022/06/05 01:43:10;;;;;;;14.00;11.53;;;;;;;10.48;87.83;102232.16;5034134;28;20296;-71
2022/06/05 01:45:48;;;;;;;16.90;12.93;;;;;;;10.45;87.06;102234.59;5031805;28;20191;-71
2022/06/05 01:48:29;;;;;;;18.57;14.40;;;;;;;10.44;87.59;102238.84;5024390;28;20206;-72
2022/06/05 01:50:59;;;;;;;16.97;12.00;;;;;;;10.44;87.28;102218.38;5031471;28;20741;-72
2022/06/05 01:53:37;;;;;;;16.57;11.73;;;;;;;10.36;87.53;102221.41;5032209;28;20187;-71
2022/06/05 01:56:14;;;;;;;14.63;10.70;;;;;;;10.27;87.93;102213.34;5031773;28;20178;-72
2022/06/05 01:58:47;;;;;;;13.13;10.13;;;;;;;10.29;87.35;102225.41;5031893;28;20206;-72
2022/06/05 02:01:21;;;;;;;12.50;10.30;;;;;;;10.22;87.17;102217.38;5013872;28;20261;-72
2022/06/05 02:03:53;;;;;;;15.30;10.90;;;;;;;10.24;87.08;102211.53;5031449;28;20274;-72
2022/06/05 02:06:26;;;;;;;13.30;10.10;;;;;;;10.17;87.38;102206.06;5031840;28;20186;-72
2022/06/05 02:08:56;;;;;;;14.60;10.87;;;;;;;10.21;87.24;102206.28;5030867;28;20591;-71
2022/06/05 02:11:30;;;;;;;16.87;11.47;;;;;;;10.19;87.10;102217.25;5013422;28;20194;-72
2022/06/05 02:14:03;;;;;;;15.40;12.13;;;;;;;10.11;87.48;102224.63;5011361;28;20202;-72
2022/06/05 02:16:31;;;;;;;17.73;13.53;;;;;;;10.10;88.44;102219.44;5012092;28;20175;-72
2022/06/05 02:19:01;;;;;;;29.17;19.77;;;;;;;10.09;88.60;102213.41;5010997;28;20195;-72
2022/06/05 02:21:27;;;;;;;24.10;16.13;;;;;;;10.06;88.11;102212.44;5011648;28;20226;-72
2022/06/05 02:23:52;;;;;;;24.63;16.43;;;;;;;10.01;88.15;102213.88;4993496;28;20261;-71
2022/06/05 02:26:18;;;;;;;29.07;19.83;;;;;;;9.99;88.58;102208.69;5011462;28;20190;-72
2022/06/05 02:28:43;;;;;;;24.33;18.43;;;;;;;9.99;89.11;102203.56;5011488;28;20198;-72
2022/06/05 02:31:44;;;;;;;19.83;15.33;;;;;;;10.03;89.72;102200.34;5010907;28;20223;-72
2022/06/05 02:34:22;;;;;;;19.67;15.07;;;;;;;10.00;89.22;102199.34;4998169;28;20264;-72
2022/06/05 02:37:00;;;;;;;18.30;14.10;;;;;;;9.97;90.31;102200.09;4993279;28;20236;-72
2022/06/05 02:39:44;;;;;;;17.43;14.43;;;;;;;9.93;89.66;102203.31;4993485;28;20218;-72
2022/06/05 02:42:31;;;;;;;16.90;12.17;;;;;;;9.90;88.79;102215.97;4993169;28;20278;-72
2022/06/05 02:45:19;;;;;;;13.73;10.63;;;;;;;9.84;89.28;102220.81;5010991;28;20187;-72
2022/06/05 02:47:55;;;;;;;15.17;11.63;;;;;;;9.86;89.37;102221.75;5010931;28;20187;-72
2022/06/05 02:50:59;;;;;;;13.80;10.30;;;;;;;9.86;88.44;102203.84;5011056;28;20985;-72
2022/06/05 02:53:25;;;;;;;13.33;10.87;;;;;;;9.88;88.61;102207.34;4993072;28;20212;-72
2022/06/05 02:55:51;;;;;;;16.07;12.20;;;;;;;9.92;89.94;102208.34;5011001;28;20587;-72
2022/06/05 02:58:17;;;;;;;13.57;10.93;;;;;;;9.90;89.59;102205.72;4992883;28;20211;-72
2022/06/05 03:03:27;;;;;;;19.50;12.77;;;;;;;9.85;89.55;102198.66;4993302;28;20182;-72
2022/06/05 03:03:28;;;;;;;17.10;11.77;;;;;;;9.83;90.68;102195.16;5010419;28;20233;-72
2022/06/05 03:05:53;;;;;;;14.33;11.03;;;;;;;9.83;90.11;102196.06;5010916;28;20183;-72
2022/06/05 03:08:20;;;;;;;13.37;10.90;;;;;;;9.83;89.78;102201.16;5010767;28;20191;-72
2022/06/05 03:10:46;;;;;;;13.87;10.60;;;;;;;9.85;90.37;102201.22;4993030;28;20202;-72
2022/06/05 03:13:13;;;;;;;14.47;11.37;;;;;;;9.88;90.37;102191.13;4993410;28;20221;-72
2022/06/05 03:15:41;;;;;;;13.07;10.47;;;;;;;9.86;90.11;102193.59;5010264;28;20206;-72
2022/06/05 03:18:07;;;;;;;16.07;12.00;;;;;;;9.87;90.78;102209.84;5010767;28;20207;-71
2022/06/05 03:20:33;;;;;;;14.80;11.87;;;;;;;9.90;90.42;102213.41;4992364;28;20195;-72
2022/06/05 03:22:59;;;;;;;16.63;11.53;;;;;;;9.88;90.39;102215.03;4995313;28;20210;-72
2022/06/05 03:25:26;;;;;;;12.00;10.30;;;;;;;9.88;90.78;102204.81;5029804;28;20672;-72
2022/06/05 03:27:54;;;;;;;14.93;11.67;;;;;;;9.85;90.59;102208.88;5030257;28;20706;-72
2022/06/05 03:30:20;;;;;;;13.40;10.97;;;;;;;9.85;90.92;102204.66;5012451;28;20190;-71
2022/06/05 03:32:46;;;;;;;15.60;11.87;;;;;;;9.88;90.30;102204.81;5029827;28;20190;-72
2022/06/05 03:35:13;;;;;;;14.53;10.90;;;;;;;9.89;91.11;102198.88;5030474;28;20217;-72
2022/06/05 03:37:38;;;;;;;15.63;11.47;;;;;;;9.96;91.12;102205.13;5012077;28;20626;-72
2022/06/05 03:40:11;;;;;;;16.77;12.67;;;;;;;10.01;90.56;102201.97;5029432;28;20273;-72
2022/06/05 03:42:37;;;;;;;15.47;12.53;;;;;;;10.05;91.25;102206.41;5029620;28;20866;-72
2022/06/05 03:45:03;;;;;;;16.30;13.27;;;;;;;10.05;91.16;102213.25;5029663;28;20521;-72
2022/06/05 03:47:29;;;;;;;18.83;12.67;;;;;;;10.05;91.78;102211.53;5029810;28;20182;-72
2022/06/05 03:49:54;;;;;;;16.10;12.53;;;;;;;10.08;90.82;102209.13;5011829;28;20190;-72
2022/06/05 03:52:19;;;;;;;14.67;12.07;;;;;;;10.15;91.21;102202.59;5029839;28;20656;-72
2022/06/05 03:54:45;;;;;;;15.07;11.43;;;;;;;10.16;91.40;102200.09;5029005;28;20182;-72
2022/06/05 03:57:10;;;;;;;14.43;11.73;;;;;;;10.19;90.46;102192.53;5029788;28;21141;-72
2022/06/05 03:59:36;;;;;;;19.60;13.23;;;;;;;10.28;91.30;102202.31;5029043;28;20305;-72
2022/06/05 04:02:04;;;;;;;16.33;12.23;;;;;;;10.35;91.72;102194.94;5029534;28;20268;-72
2022/06/05 04:04:31;;;;;;;20.50;14.07;;;;;;;10.45;92.88;102191.06;5029534;28;20213;-72
2022/06/05 04:06:56;;;;;;;15.43;12.90;;;;;;;10.51;92.46;102201.56;5030139;28;20178;-72
2022/06/05 04:09:22;;;;;;;16.83;13.80;;;;;;;10.60;92.60;102200.25;5029383;28;20198;-72
2022/06/05 04:11:47;;;;;;;20.33;14.27;;;;;;;10.77;93.08;102195.81;4995041;28;20644;-72
2022/06/05 04:14:12;;;;;;;22.87;16.30;;;;;;;10.92;92.92;102206.69;5029695;28;20183;-72
2022/06/05 04:16:40;;;;;;;19.00;14.67;;;;;;;11.03;93.54;102198.59;5011380;28;20190;-72
2022/06/05 04:19:05;;;;;;;19.23;14.90;;;;;;;11.10;93.30;102199.72;5011696;28;20336;-72
2022/06/05 04:21:34;;;;;;;19.93;14.83;;;;;;;11.20;93.82;102200.13;5028925;28;20202;-72
2022/06/05 04:24:00;;;;;;;21.50;15.77;;;;;;;11.34;94.31;102193.81;4995746;28;20240;-72
2022/06/05 04:26:28;;;;;;;21.60;15.67;;;;;;;11.41;93.89;102194.94;5029561;28;20198;-72
2022/06/05 04:28:54;;;;;;;21.63;15.83;;;;;;;11.53;94.30;102182.56;5029162;28;20206;-72
2022/06/05 04:31:35;;;;;;;20.27;16.20;;;;;;;11.63;94.21;102180.44;5029375;28;20183;-72
2022/06/05 04:34:10;;;;;;;17.80;15.33;;;;;;;11.75;94.45;102177.44;5011333;28;20671;-72
2022/06/05 04:36:36;;;;;;;23.57;16.30;;;;;;;11.87;94.51;102172.72;5029329;28;20667;-72
2022/06/05 04:39:02;;;;;;;23.03;17.13;;;;;;;11.98;94.13;102164.59;5028838;28;20206;-72
2022/06/05 04:41:28;;;;;;;21.23;16.07;;;;;;;12.09;94.07;102158.16;5029146;28;20213;-72
2022/06/05 04:43:55;;;;;;;19.73;15.40;;;;;;;12.22;93.77;102154.28;5028887;28;20182;-72
2022/06/05 04:46:21;;;;;;;21.83;16.63;;;;;;;12.31;93.33;102152.88;5029282;28;20672;-72
2022/06/05 04:48:48;;;;;;;19.57;15.60;;;;;;;12.43;92.87;102150.72;5029027;28;20236;-72
2022/06/05 04:51:13;;;;;;;21.50;15.77;;;;;;;12.59;92.72;102152.09;5028787;28;20182;-72
2022/06/05 04:53:39;;;;;;;19.10;15.07;;;;;;;12.71;92.02;102148.22;5028833;28;20196;-72
2022/06/05 04:56:07;;;;;;;20.13;15.80;;;;;;;12.82;91.62;102154.56;5010991;28;20198;-72
2022/06/05 04:58:33;;;;;;;19.93;15.37;;;;;;;12.96;90.93;102144.72;5029112;28;20195;-72
2022/06/05 05:00:59;;;;;;;21.50;14.93;;;;;;;13.07;90.29;102143.38;5028595;28;20551;-72
2022/06/05 05:03:25;;;;;;;18.33;14.30;;;;;;;13.19;89.55;102135.16;5028992;28;20703;-72
2022/06/05 05:05:51;;;;;;;19.73;15.10;;;;;;;13.36;89.51;102129.69;5010710;28;20209;-72
2022/06/05 05:08:16;;;;;;;20.53;14.50;;;;;;;13.47;88.11;102117.97;5029086;28;20751;-72
2022/06/05 05:10:42;;;;;;;18.50;14.93;;;;;;;13.62;88.40;102125.25;5014848;28;20205;-72
2022/06/05 05:13:08;;;;;;;17.77;14.00;;;;;;;13.73;87.41;102126.41;5032413;28;20190;-72
2022/06/05 05:15:34;;;;;;;17.60;14.23;;;;;;;13.91;87.31;102116.63;5014838;28;20190;-73
2022/06/05 05:17:59;;;;;;;17.73;13.73;;;;;;;14.03;86.28;102115.22;5031986;28;20217;-72
2022/06/05 05:20:25;;;;;;;14.70;12.93;;;;;;;14.19;85.99;102111.34;5032303;28;20225;-72
2022/06/05 05:22:51;;;;;;;16.57;13.10;;;;;;;14.31;85.34;102122.00;5014246;28;20218;-72
2022/06/05 05:25:18;;;;;;;16.30;11.80;;;;;;;14.43;84.69;102119.69;5032612;28;20184;-72
2022/06/05 05:27:43;;;;;;;14.07;11.53;;;;;;;14.54;84.00;102113.09;5032428;28;20193;-72
2022/06/05 05:30:10;;;;;;;13.30;11.53;;;;;;;14.62;81.81;102109.88;5014191;28;20174;-72
2022/06/05 05:32:36;;;;;;;15.37;11.70;;;;;;;14.75;81.92;102109.31;5032177;28;20218;-72
2022/06/05 05:35:02;;;;;;;15.07;12.37;;;;;;;14.91;81.07;102113.13;5031896;28;20193;-72
2022/06/05 05:37:27;;;;;;;12.70;11.17;;;;;;;14.95;79.96;102105.47;5032459;28;20178;-72
2022/06/05 05:42:37;;;;;;;13.23;11.23;;;;;;;15.29;78.92;102102.75;5032290;28;20205;-72
2022/06/05 05:45:05;;;;;;;12.73;9.93;;;;;;;15.35;77.57;102100.34;5032126;28;20190;-72
2022/06/05 05:47:32;;;;;;;11.40;9.93;;;;;;;15.49;77.47;102101.47;5031962;28;20205;-70
2022/06/05 05:50:00;;;;;;;11.97;9.77;;;;;;;15.64;76.22;102100.88;5014192;28;20214;-72
2022/06/05 05:52:27;;;;;;;10.43;9.37;;;;;;;15.80;76.48;102082.25;5032178;28;20186;-73
2022/06/05 05:54:52;;;;;;;11.27;9.13;;;;;;;15.88;74.38;102088.44;5032367;28;20257;-72
2022/06/05 05:57:18;;;;;;;10.27;9.13;;;;;;;15.93;74.55;102079.91;5013787;28;20214;-72
2022/06/05 05:59:44;;;;;;;10.43;9.33;;;;;;;16.12;73.46;102089.72;5031863;28;20234;-72
2022/06/05 06:02:13;;;;;;;10.07;8.97;;;;;;;16.00;73.14;102089.53;5031205;28;20264;-71
2022/06/05 06:04:40;;;;;;;8.53;7.67;;;;;;;16.08;72.91;102089.66;5031329;28;20187;-73
2022/06/05 06:07:07;;;;;;;9.47;8.03;;;;;;;16.34;72.08;102085.81;5031332;28;20726;-70
2022/06/05 06:09:33;;;;;;;9.77;8.77;;;;;;;16.45;71.66;102098.09;5031530;28;20693;-72
2022/06/05 06:11:59;;;;;;;9.47;7.93;;;;;;;16.50;71.15;102099.03;5031849;28;20178;-73
2022/06/05 06:14:24;;;;;;;8.13;7.33;;;;;;;16.66;70.08;102107.84;5031210;28;20550;-72
2022/06/05 06:16:50;;;;;;;7.60;6.90;;;;;;;16.85;68.81;102100.38;5029745;28;20713;-70
2022/06/05 06:19:15;;;;;;;8.63;6.33;;;;;;;16.93;67.26;102110.84;5029613;28;20206;-72
2022/06/05 06:21:41;;;;;;;8.90;7.70;;;;;;;17.00;66.88;102105.75;5029902;28;20237;-73
2022/06/05 06:24:06;;;;;;;8.00;6.77;;;;;;;17.05;66.41;102105.84;5030695;28;20205;-73
2022/06/05 06:26:32;;;;;;;8.10;6.50;;;;;;;17.13;65.90;102104.25;5013434;28;20198;-72
2022/06/05 06:28:57;;;;;;;7.70;6.40;;;;;;;17.13;65.96;102096.47;5030634;28;20234;-72
2022/06/05 06:31:23;;;;;;;7.33;6.63;;;;;;;17.23;64.84;102103.50;5029777;28;20191;-72
2022/06/05 06:33:49;;;;;;;8.23;7.03;;;;;;;17.07;65.90;102105.00;5031008;28;20231;-72
2022/06/05 06:36:18;;;;;;;8.80;7.33;;;;;;;17.41;64.46;102096.84;5030372;28;20190;-72
2022/06/05 06:38:44;;;;;;;11.23;7.20;;;;;;;17.63;63.31;102092.75;5030481;28;20202;-72
2022/06/05 06:41:16;;;;;;;7.80;6.80;;;;;;;17.61;63.63;102092.78;5029879;28;20648;-72
2022/06/05 06:43:43;;;;;;;10.00;6.67;;;;;;;17.97;64.39;102084.50;5013169;28;20555;-72
2022/06/05 06:46:10;;;;;;;7.47;6.67;;;;;;;18.24;63.20;102084.72;5030121;28;20210;-72
2022/06/05 06:48:36;;;;;;;6.43;5.63;;;;;;;18.06;60.89;102092.34;5012881;28;20574;-72
2022/06/05 06:51:03;;;;;;;6.60;5.73;;;;;;;18.19;60.89;102083.84;5029964;28;20281;-72
2022/06/05 06:53:30;;;;;;;7.77;6.60;;;;;;;18.24;60.70;102090.78;5030458;28;20191;-72
2022/06/05 06:55:56;;;;;;;6.30;5.53;;;;;;;18.14;59.43;102085.53;5030901;28;20233;-72
2022/06/05 06:58:22;;;;;;;6.33;5.20;;;;;;;18.44;59.31;102084.06;5030063;28;20202;-72
2022/06/05 07:00:47;;;;;;;6.30;5.70;;;;;;;18.46;59.23;102082.34;5029618;28;20190;-72
2022/06/05 07:03:13;;;;;;;6.30;5.70;;;;;;;18.74;58.12;102081.66;5004359;28;20226;-72
2022/06/05 07:05:40;;;;;;;7.73;5.53;;;;;;;18.85;57.67;102069.63;5004200;28;20230;-72
2022/06/05 07:08:07;;;;;;;5.57;5.07;;;;;;;18.98;57.94;102061.00;5011434;28;20207;-72
2022/06/05 07:10:33;;;;;;;5.57;5.03;;;;;;;19.21;57.00;102067.16;5027705;28;20528;-72
2022/06/05 07:12:58;;;;;;;5.93;5.07;;;;;;;19.45;56.20;102050.84;5010358;28;20189;-72
2022/06/05 07:15:23;;;;;;;5.17;4.60;;;;;;;19.51;56.56;102059.53;5008731;28;20219;-72
2022/06/05 07:17:49;;;;;;;6.70;4.60;;;;;;;19.95;56.26;102055.25;5010085;28;20237;-72
2022/06/05 07:20:14;;;;;;;5.20;4.80;;;;;;;19.74;53.92;102054.34;5008467;28;20683;-72
2022/06/05 07:22:40;;;;;;;5.10;4.50;;;;;;;19.77;54.31;102052.63;5009899;28;20583;-72
2022/06/05 07:25:06;;;;;;;4.83;4.27;;;;;;;20.05;53.41;102051.81;5009864;28;20202;-72
2022/06/05 07:27:32;;;;;;;4.40;4.00;;;;;;;19.90;53.52;102040.53;4991802;28;20179;-72
2022/06/05 07:29:58;;;;;;;4.77;4.27;;;;;;;20.42;52.55;102034.44;5029332;28;20602;-72
2022/06/05 07:32:23;;;;;;;4.30;3.90;;;;;;;20.31;51.41;102033.63;5012233;28;20652;-72
2022/06/05 07:34:49;;;;;;;5.17;4.47;;;;;;;20.47;51.27;102033.59;5011654;28;20554;-71
2022/06/05 07:37:15;;;;;;;4.10;3.70;;;;;;;20.83;51.60;102032.63;5038757;28;20185;-72
2022/06/05 07:39:44;;;;;;;5.13;4.63;;;;;;;20.84;51.10;102029.13;5047919;28;20304;-72
2022/06/05 07:42:11;;;;;;;4.93;4.43;;;;;;;21.06;50.63;102033.44;5030769;28;20221;-72
2022/06/05 07:44:37;;;;;;;5.20;3.83;;;;;;;21.22;50.79;102029.84;5048437;28;20186;-72
2022/06/05 07:47:07;;;;;;;6.37;4.37;;;;;;;21.09;50.04;102023.00;5048957;28;20534;-72
2022/06/05 07:49:34;;;;;;;4.90;3.97;;;;;;;21.48;52.52;102026.25;5029372;28;20272;-73
2022/06/05 07:54:45;;;;;;;5.03;4.40;;;;;;;21.83;51.06;102013.84;5030297;28;20193;-74
2022/06/05 07:57:14;;;;;;;5.43;4.30;;;;;;;21.83;49.56;102007.78;5027149;28;20210;-73
2022/06/05 07:59:43;;;;;;;5.30;4.67;;;;;;;21.94;49.04;102005.94;5027830;28;20213;-73
2022/06/05 08:02:13;;;;;;;5.20;4.70;;;;;;;22.09;48.56;102008.41;5010245;28;20735;-73
2022/06/05 08:04:40;;;;;;;5.87;3.73;;;;;;;22.27;47.86;102010.84;5002612;28;20733;-73
2022/06/05 08:07:08;;;;;;;4.23;3.83;;;;;;;22.47;48.46;102005.47;5028540;28;20240;-72
2022/06/05 08:09:35;;;;;;;4.20;3.80;;;;;;;22.55;46.65;102004.50;5028202;28;20229;-73
2022/06/05 08:12:01;;;;;;;4.67;3.43;;;;;;;22.81;45.91;102005.06;5028392;28;20187;-73
2022/06/05 08:14:27;;;;;;;3.53;3.23;;;;;;;22.71;45.41;102000.84;5028435;28;20195;-73
2022/06/05 08:16:55;;;;;;;4.47;4.03;;;;;;;22.78;45.35;102010.31;5026532;28;20283;-73
2022/06/05 08:19:22;;;;;;;4.63;3.43;;;;;;;22.52;45.21;102008.91;5027662;28;20218;-72
2022/06/05 08:21:51;;;;;;;3.83;3.53;;;;;;;22.67;44.70;102000.88;5026198;28;20198;-72
2022/06/05 08:24:16;;;;;;;3.53;3.20;;;;;;;23.07;44.75;102002.97;5027523;28;20186;-72
2022/06/05 08:26:42;;;;;;;6.20;3.90;;;;;;;23.08;45.10;101994.28;5020477;28;20563;-73
2022/06/05 08:29:07;;;;;;;3.43;3.13;;;;;;;23.21;43.64;101984.53;5027687;28;20267;-73
2022/06/05 08:31:33;;;;;;;5.87;3.50;;;;;;;23.47;44.36;101995.47;5026940;28;20190;-73
2022/06/05 08:34:01;;;;;;;3.83;3.10;;;;;;;23.41;43.26;101987.72;5028611;28;20218;-72
2022/06/05 08:36:27;;;;;;;3.30;3.00;;;;;;;23.37;42.21;101994.75;5028072;28;20186;-72
2022/06/05 08:42:00;;;;;;;3.37;2.90;;;;;;;23.68;42.19;101993.41;5027287;28;20584;-72
2022/06/05 08:44:41;;;;;;;4.60;3.30;;;;;;;24.00;41.46;101995.53;5025130;28;20197;-72
2022/06/05 08:47:21;;;;;;;3.73;3.00;;;;;;;23.90;40.68;101993.97;5031975;28;20259;-72
2022/06/05 08:49:51;;;;;;;3.03;2.83;;;;;;;24.30;41.51;101988.00;5013838;28;20206;-72
2022/06/05 08:52:42;;;;;;;4.13;3.13;;;;;;;24.39;41.00;101976.47;5031840;28;20178;-72
2022/06/05 08:55:27;;;;;;;4.28;2.90;;;;;;;24.71;39.70;101980.22;5014547;28;20186;-73
2022/06/05 08:57:58;;;;;;;3.30;3.00;;;;;;;24.86;39.65;101973.81;5031669;28;20202;-73
2022/06/05 09:00:34;;;;;;;4.00;3.00;;;;;;;24.77;39.38;101972.22;5031343;28;20190;-72
2022/06/05 09:03:34;;;;;;;3.25;2.92;;;;;;;25.18;39.69;101972.19;5031743;28;20217;-72
2022/06/05 09:06:12;;;;;;;3.65;3.35;;;;;;;25.38;38.05;101971.78;5032714;28;20178;-72
2022/06/05 09:08:42;;;;;;;3.28;2.90;;;;;;;25.23;37.91;101972.94;5032435;28;20224;-72
2022/06/05 09:11:57;;;;;;;3.58;3.13;;;;;;;25.45;38.09;101962.84;5031994;28;20555;-73
2022/06/05 09:14:29;;;;;;;3.47;3.05;;;;;;;25.85;38.55;101961.88;5031017;28;20206;-72
2022/06/05 09:17:01;;;;;;;3.38;3.08;;;;;;;26.19;37.94;101954.84;5032069;28;20178;-72
2022/06/05 09:19:30;;;;;;;3.80;3.17;;;;;;;26.47;38.71;101949.72;5031598;28;20212;-72
2022/06/05 09:22:17;;;;;;;4.05;3.15;;;;;;;26.67;38.17;101935.09;5031694;28;20217;-72
2022/06/05 09:25:00;;;;;;;3.67;3.35;;;;;;;26.88;37.81;101931.84;5030867;28;20194;-72
2022/06/05 09:27:35;;;;;;;3.25;2.95;;;;;;;27.00;36.84;101928.84;5031672;28;20233;-72
2022/06/05 09:30:16;;;;;;;3.60;3.30;;;;;;;27.02;37.88;101928.78;5029661;28;20265;-72
2022/06/05 09:33:02;;;;;;;4.25;3.55;;;;;;;27.16;35.73;101923.94;5031580;28;20273;-72
2022/06/05 09:35:44;;;;;;;3.22;2.92;;;;;;;26.93;36.41;101913.31;5031465;28;20206;-72
2022/06/05 09:38:34;;;;;;;4.30;3.30;;;;;;;26.42;36.64;101912.16;5030356;28;20260;-72
2022/06/05 09:41:11;;;;;;;3.72;3.42;;;;;;;26.82;35.75;101899.59;5030928;28;20213;-72
2022/06/05 09:43:49;;;;;;;3.78;3.47;;;;;;;27.08;35.79;101892.63;5029632;28;20296;-72
2022/06/05 09:46:35;;;;;;;5.38;3.50;;;;;;;27.32;35.01;101877.84;5030482;28;20284;-72
2022/06/05 09:49:09;;;;;;;3.53;3.22;;;;;;;27.42;35.02;101871.38;5029736;28;20210;-72
2022/06/05 09:51:37;;;;;;;3.85;3.47;;;;;;;27.48;36.11;101869.41;5029985;28;20186;-72
2022/06/05 09:54:02;;;;;;;3.53;3.22;;;;;;;27.18;35.19;101870.44;5031690;28;20773;-71
2022/06/05 09:59:39;;;;;;;4.70;3.45;;;;;;;27.40;34.79;101855.63;5010616;28;20222;-72
2022/06/05 10:02:07;;;;;;;3.67;3.05;;;;;;;27.31;34.68;101853.28;5011440;28;20724;-72
2022/06/05 10:04:34;;;;;;;3.38;3.08;;;;;;;27.53;33.58;101837.66;5011904;28;20198;-72
2022/06/05 10:07:06;;;;;;;3.25;2.95;;;;;;;27.35;34.25;101835.66;5011825;28;20191;-72
2022/06/05 10:09:34;;;;;;;3.10;2.90;;;;;;;27.41;34.14;101827.53;5015066;28;20206;-72
2022/06/05 10:12:03;;;;;;;2.95;2.75;;;;;;;27.26;34.31;101826.28;5029383;28;20266;-72
2022/06/05 10:14:32;;;;;;;4.55;3.33;;;;;;;27.71;34.00;101826.47;5031271;28;20629;-72
2022/06/05 10:17:16;;;;;;;3.03;2.72;;;;;;;27.70;34.37;101827.38;5031382;28;20656;-72
2022/06/05 10:20:15;;;;;;;3.70;3.00;;;;;;;28.18;34.57;101833.56;5028287;28;20206;-72
2022/06/05 10:22:51;;;;;;;3.58;3.10;;;;;;;28.15;33.74;101831.03;5000437;28;20694;-72
2022/06/05 10:25:35;;;;;;;3.22;3.03;;;;;;;28.11;33.48;101826.78;5013566;28;20240;-72
2022/06/05 10:28:08;;;;;;;3.97;3.03;;;;;;;28.15;33.57;101821.38;5030931;28;20210;-72
2022/06/05 10:30:53;;;;;;;3.50;3.20;;;;;;;28.02;33.22;101813.94;5030664;28;20627;-72
2022/06/05 10:33:40;;;;;;;3.35;3.03;;;;;;;28.15;33.70;101809.94;5031123;28;20276;-72
2022/06/05 10:36:09;;;;;;;3.80;3.40;;;;;;;28.11;33.09;101809.22;5012882;28;20328;-72
2022/06/05 10:39:15;;;;;;;3.40;2.85;;;;;;;28.27;33.02;101810.34;5030952;28;20214;-72
2022/06/05 10:42:01;;;;;;;3.50;3.20;;;;;;;28.33;34.25;101804.81;5030665;28;20233;-72
2022/06/05 10:44:42;;;;;;;3.30;2.88;;;;;;;28.52;35.85;101799.75;5031019;28;20174;-72
2022/06/05 10:47:31;;;;;;;5.38;3.70;;;;;;;28.46;34.15;101798.19;5030568;28;20617;-72
2022/06/05 10:50:10;;;;;;;7.88;5.28;;;;;;;28.78;31.97;101799.56;5030649;28;20189;-72
2022/06/05 10:52:46;;;;;;;4.20;3.13;;;;;;;28.83;31.91;101798.44;5030343;28;20193;-73
2022/06/05 10:55:18;;;;;;;3.42;2.75;;;;;;;28.33;31.50;101790.81;5031218;28;20179;-72
2022/06/05 10:57:56;;;;;;;3.00;2.60;;;;;;;28.42;33.27;101785.22;5030189;28;20195;-72
2022/06/05 11:00:37;;;;;;;3.45;2.90;;;;;;;28.29;32.04;101776.88;5030497;28;20197;-72
2022/06/05 11:03:27;;;;;;;2.67;2.47;;;;;;;28.58;32.44;101787.19;5030217;28;20210;-72
2022/06/05 11:05:52;;;;;;;3.20;2.90;;;;;;;28.86;31.88;101785.16;5012540;28;20281;-72
2022/06/05 11:08:36;;;;;;;2.90;2.70;;;;;;;29.08;31.67;101788.66;5030116;28;20289;-72
2022/06/05 11:14:07;;;;;;;3.30;3.00;;;;;;;29.20;32.30;101793.41;5030400;28;20523;-72
2022/06/05 11:16:42;;;;;;;2.70;2.50;;;;;;;29.26;30.91;101794.94;5029925;28;20824;-72
2022/06/05 11:19:22;;;;;;;5.53;5.03;;;;;;;28.81;30.13;101795.03;5012637;28;20687;-73
2022/06/05 11:21:49;;;;;;;3.88;2.63;;;;;;;28.67;30.07;101791.22;5026569;28;20632;-72
2022/06/05 11:24:25;;;;;;;2.63;2.42;;;;;;;28.30;30.56;101790.91;5030242;28;20182;-72
2022/06/05 11:26:58;;;;;;;2.20;2.10;;;;;;;28.64;31.60;101792.19;5029702;28;20213;-72
2022/06/05 11:29:24;;;;;;;2.40;2.20;;;;;;;29.05;30.19;101787.91;5029993;28;20205;-72
2022/06/05 11:31:55;;;;;;;6.50;2.30;;;;;;;28.85;29.93;101785.19;5011948;28;20547;-72
2022/06/05 11:34:32;;;;;;;2.80;2.08;;;;;;;28.86;30.64;101782.50;5029324;28;20201;-72
2022/06/05 11:37:44;;;;;;;2.22;2.03;;;;;;;29.01;29.69;101779.25;5029810;28;20218;-72
2022/06/05 11:40:32;;;;;;;2.38;2.10;;;;;;;28.90;30.95;101770.91;5011493;28;20187;-72
2022/06/05 11:43:10;;;;;;;2.38;2.17;;;;;;;29.36;29.71;101760.16;5029547;28;20215;-73
2022/06/05 11:45:57;;;;;;;2.17;2.08;;;;;;;29.23;30.72;101755.44;5029354;28;20186;-72
2022/06/05 11:48:35;;;;;;;2.85;2.60;;;;;;;28.62;30.25;101737.81;5011905;28;20743;-73
2022/06/05 11:51:12;;;;;;;2.47;2.28;;;;;;;28.21;30.94;101743.81;5029234;28;20655;-72
2022/06/05 11:54:05;;;;;;;3.03;2.25;;;;;;;28.28;30.52;101730.34;5012047;28;20186;-72